Overview Statistics Trail Chart Weather Telemetry Raw packets
 

This is the latest recevied telemetry packets stored in our database for station/object OE3TEC-10. If no packets are shown the sender has not sent any telemetry packets the latest 10 day(s).

Telemetry packets is used to share measurements like repeteater parameters, battery voltage, radiation readings (or any other measurements).

<< 1 2 3 4 >>
Time Press* Temp.in* Hum* QNH* Temp.out*
1777978129 983.3 hPa 34.5 C deg 20 % 1007.8 hPa 0 C deg
1777976309 983.8 hPa 33.7 C deg 20.9 % 1008.4 hPa 0 C deg
1777972621 984.4 hPa 31.5 C deg 21.7 % 1009.1 hPa 0 C deg
1777972494 984.4 hPa 31.4 C deg 21.8 % 1009.2 hPa 0 C deg
1777972159 984.4 hPa 31.3 C deg 21.8 % 1009.2 hPa 0 C deg
1777965635 985 hPa 25.7 C deg 24.1 % 1010.3 hPa 0 C deg
1777963827 985.1 hPa 24.6 C deg 24.3 % 1010.5 hPa 0 C deg
1777963633 985 hPa 24.4 C deg 24.4 % 1010.4 hPa 0 C deg
1777960765 985.1 hPa 20.9 C deg 26.3 % 1010.8 hPa 0 C deg
1777957713 985.1 hPa 18.2 C deg 25.9 % 1011 hPa 0 C deg
1777955889 984.9 hPa 18.1 C deg 26.1 % 1010.9 hPa 0 C deg
1777954085 984.8 hPa 18.4 C deg 25.9 % 1010.7 hPa 0 C deg
1777952269 984.9 hPa 19 C deg 25.5 % 1010.8 hPa 0 C deg
1777948626 984.9 hPa 20.5 C deg 24.9 % 1010.7 hPa 0 C deg
1777946841 985.2 hPa 21.3 C deg 24.5 % 1010.8 hPa 0 C deg
1777945019 985.2 hPa 22 C deg 24.2 % 1010.8 hPa 0 C deg
1777943184 985.3 hPa 22.9 C deg 23.6 % 1010.9 hPa 0 C deg
1777941377 985.4 hPa 23.6 C deg 23.1 % 1010.9 hPa 0 C deg
1777938653 985.5 hPa 24.5 C deg 22.5 % 1010.9 hPa 0 C deg
1777936825 985.6 hPa 25.1 C deg 22.2 % 1011 hPa 0 C deg
1777935871 985.8 hPa 25.5 C deg 22.1 % 1011.2 hPa 0 C deg
1777934067 986 hPa 26.3 C deg 21.6 % 1011.3 hPa 0 C deg
1777932243 986.1 hPa 27.1 C deg 21.1 % 1011.3 hPa 0 C deg
1777926803 986.1 hPa 29.4 C deg 19.6 % 1011.1 hPa 0 C deg
1777923177 986.3 hPa 31.4 C deg 18.6 % 1011.2 hPa 0 C deg
*Used Equation Coefficients:
Press: 0, 1, 0
Temp.in: 0, 1, 0
Hum: 0, 1, 0
QNH: 0, 1, 0
Temp.out: 0, 1, 0

  • The parameter names for the analog channels will be Value1, Value2, Value3 (up to Value5) if station has not sent a PARAM-packet that specifies the parameter names for each analog channel.
  • Each analog value is a decimal number between 000 and 255 (according to APRS specifications). The receiver use the telemetry equation coefficientsto to restore the original sensor values. If no EQNS-packet with equation coefficients is sent we will show the values as is (this corresponds to the equation coefficients a=0, b=1 and c=0).
    The sent equation coefficients is used in the equation: a * value2 + b * value + c.
  • The units for the analog values will not be shown if station has not sent a UNIT-packet specifying what unit's to use.
  • The parameter names for the digital bits will be Bit1, Bit2, Bit3 (up to Bit8) if station has not sent a PARAM-packet that specifies the parameter names for each digital bit.
  • All bit labels will be named "On" if station has not sent a UNIT-packet that specifies the label of each bit.
  • A bit is considered to be On when the bit is 1 if station has not sent a BITS-packet that specifies another "Bit sense" (a BITS-packet specify the state of the bits that match the BIT labels)